createdAt,value
2023-08-12T00:00:23.391Z,25.49
2023-08-12T00:00:54.901Z,25.48
2023-08-12T00:01:26.460Z,25.47
2023-08-12T00:01:57.968Z,25.47
2023-08-12T00:02:29.445Z,25.46
2023-08-12T00:03:00.994Z,25.47
2023-08-12T00:03:32.636Z,25.46
2023-08-12T00:04:04.179Z,25.46
2023-08-12T00:04:35.799Z,25.46
2023-08-12T00:05:07.254Z,25.45
2023-08-12T00:05:38.731Z,25.45
2023-08-12T00:06:10.183Z,25.44
2023-08-12T00:06:41.710Z,25.44
2023-08-12T00:07:13.478Z,25.44
2023-08-12T00:07:45.143Z,25.44
2023-08-12T00:08:16.646Z,25.43
2023-08-12T00:08:48.136Z,25.43
2023-08-12T00:09:19.589Z,25.43
2023-08-12T00:09:51.179Z,25.42
2023-08-12T00:10:22.634Z,25.41
2023-08-12T00:10:54.084Z,25.40
2023-08-12T00:11:25.588Z,25.40
2023-08-12T00:11:57.027Z,25.38
2023-08-12T00:12:28.515Z,25.38
2023-08-12T00:12:59.991Z,25.38
2023-08-12T00:13:31.471Z,25.38
2023-08-12T00:14:02.928Z,25.38
2023-08-12T00:14:34.375Z,25.38
2023-08-12T00:15:05.895Z,25.37
2023-08-12T00:15:37.436Z,25.37
2023-08-12T00:16:08.981Z,25.36
2023-08-12T00:16:40.499Z,25.37
2023-08-12T00:17:12.142Z,25.35
2023-08-12T00:17:43.802Z,25.35
2023-08-12T00:18:15.371Z,25.34
2023-08-12T00:18:46.813Z,25.35
2023-08-12T00:19:18.388Z,25.34
2023-08-12T00:19:49.871Z,25.34
2023-08-12T00:20:21.413Z,25.33
2023-08-12T00:20:52.857Z,25.33
2023-08-12T00:21:24.330Z,25.32
2023-08-12T00:21:55.808Z,25.33
2023-08-12T00:22:27.296Z,25.32
2023-08-12T00:22:58.793Z,25.33
2023-08-12T00:23:30.282Z,25.32
2023-08-12T00:24:01.737Z,25.31
2023-08-12T00:24:33.320Z,25.30
2023-08-12T00:25:05.001Z,25.30
2023-08-12T00:25:36.550Z,25.29
2023-08-12T00:26:08.023Z,25.29
2023-08-12T00:26:39.511Z,25.29
2023-08-12T00:27:11.313Z,25.29
2023-08-12T00:27:42.924Z,25.28
2023-08-12T00:28:14.472Z,25.27
2023-08-12T00:28:45.993Z,25.28
2023-08-12T00:29:17.444Z,25.27
2023-08-12T00:29:49.038Z,25.26
2023-08-12T00:30:20.494Z,25.26
2023-08-12T00:30:52.037Z,25.26
2023-08-12T00:31:23.636Z,25.24
2023-08-12T00:31:55.095Z,25.24
2023-08-12T00:32:26.532Z,25.23
2023-08-12T00:32:58.064Z,25.23
2023-08-12T00:33:29.628Z,25.24
2023-08-12T00:34:01.087Z,25.23
2023-08-12T00:34:32.536Z,25.21
2023-08-12T00:35:04.109Z,25.22
2023-08-12T00:35:35.614Z,25.21
2023-08-12T00:36:07.115Z,25.21
2023-08-12T00:36:38.643Z,25.21
2023-08-12T00:37:10.342Z,25.20
2023-08-12T00:37:42.023Z,25.20
2023-08-12T00:38:13.461Z,25.21
2023-08-12T00:38:44.919Z,25.20
2023-08-12T00:39:16.463Z,25.18
2023-08-12T00:39:47.918Z,25.17
2023-08-12T00:40:19.414Z,25.17
2023-08-12T00:40:50.858Z,25.17
2023-08-12T00:41:22.355Z,25.18
2023-08-12T00:41:53.811Z,25.17
2023-08-12T00:42:25.356Z,25.17
2023-08-12T00:42:56.796Z,25.17
2023-08-12T00:43:28.291Z,25.16
2023-08-12T00:43:59.758Z,25.16
2023-08-12T00:44:31.340Z,25.17
2023-08-12T00:45:02.790Z,25.15
2023-08-12T00:45:34.270Z,25.15
2023-08-12T00:46:05.731Z,25.15
2023-08-12T00:46:37.186Z,25.13
2023-08-12T00:47:08.702Z,25.14
2023-08-12T00:47:40.422Z,25.14
2023-08-12T00:48:14.457Z,25.12
2023-08-12T00:48:46.226Z,25.12
2023-08-12T00:49:17.680Z,25.13
2023-08-12T00:49:49.211Z,25.12
2023-08-12T00:50:20.682Z,25.11
2023-08-12T00:50:52.170Z,25.11
2023-08-12T00:51:23.662Z,25.11
2023-08-12T00:51:55.142Z,25.10
2023-08-12T00:52:26.590Z,25.10
2023-08-12T00:52:58.081Z,25.10
2023-08-12T00:53:29.577Z,25.10
2023-08-12T00:54:01.085Z,25.09
2023-08-12T00:54:32.661Z,25.09
2023-08-12T00:55:04.117Z,25.08
2023-08-12T00:55:35.571Z,25.08
2023-08-12T00:56:07.060Z,25.08
2023-08-12T00:56:38.556Z,25.08
2023-08-12T00:57:09.994Z,25.08
2023-08-12T00:57:41.431Z,25.09
2023-08-12T00:58:12.877Z,25.09
2023-08-12T00:58:44.363Z,25.07
2023-08-12T00:59:15.895Z,25.07
2023-08-12T00:59:47.429Z,25.06
2023-08-12T01:00:18.918Z,25.06
2023-08-12T01:00:50.398Z,25.06
2023-08-12T01:01:21.929Z,25.06
2023-08-12T01:01:53.530Z,25.04
2023-08-12T01:02:25.106Z,25.04
2023-08-12T01:02:56.829Z,25.04
2023-08-12T01:03:28.515Z,25.05
2023-08-12T01:04:00.173Z,25.04
2023-08-12T01:04:31.780Z,25.04
2023-08-12T01:05:03.245Z,25.04
2023-08-12T01:05:34.725Z,25.03
2023-08-12T01:06:06.169Z,25.03
2023-08-12T01:06:37.654Z,25.04
2023-08-12T01:07:09.452Z,25.04
2023-08-12T01:07:41.201Z,25.04
2023-08-12T01:08:12.684Z,25.02
2023-08-12T01:08:44.130Z,25.02
2023-08-12T01:09:15.608Z,25.02
2023-08-12T01:09:47.179Z,25.01
2023-08-12T01:10:18.665Z,25.01
2023-08-12T01:10:50.106Z,25.01
2023-08-12T01:11:21.583Z,25.01
2023-08-12T01:11:53.023Z,25.00
2023-08-12T01:12:24.572Z,25.00
2023-08-12T01:12:56.064Z,25.00
2023-08-12T01:13:27.518Z,25.00
2023-08-12T01:13:58.995Z,25.00
2023-08-12T01:14:30.479Z,24.98
2023-08-12T01:15:02.037Z,24.99
2023-08-12T01:15:33.511Z,24.99
2023-08-12T01:16:05.021Z,24.99
2023-08-12T01:16:36.569Z,24.98
2023-08-12T01:17:08.104Z,24.98
2023-08-12T01:17:39.698Z,24.98
2023-08-12T01:18:11.190Z,24.98
2023-08-12T01:18:42.725Z,24.97
2023-08-12T01:19:14.237Z,24.97
2023-08-12T01:19:45.709Z,24.97
2023-08-12T01:20:17.188Z,24.96
2023-08-12T01:20:48.669Z,24.96
2023-08-12T01:21:20.150Z,24.96
2023-08-12T01:21:51.591Z,24.95
2023-08-12T01:22:23.069Z,24.95
2023-08-12T01:22:54.670Z,24.94
2023-08-12T01:23:26.115Z,24.94
2023-08-12T01:23:57.598Z,24.93
2023-08-12T01:24:29.090Z,24.93
2023-08-12T01:25:00.558Z,24.93
2023-08-12T01:25:32.124Z,24.93
2023-08-12T01:26:03.564Z,24.93
2023-08-12T01:26:35.043Z,24.92
2023-08-12T01:27:06.532Z,24.91
2023-08-12T01:27:37.995Z,24.91
2023-08-12T01:28:09.563Z,24.92
2023-08-12T01:28:41.022Z,24.92
2023-08-12T01:29:12.502Z,24.91
2023-08-12T01:29:43.991Z,24.90
2023-08-12T01:30:15.502Z,24.89
2023-08-12T01:30:49.134Z,24.89
2023-08-12T01:31:21.028Z,24.88
2023-08-12T01:31:52.537Z,24.89
2023-08-12T01:32:23.996Z,24.88
2023-08-12T01:32:55.568Z,24.88
2023-08-12T01:33:27.126Z,24.87
2023-08-12T01:33:58.599Z,24.87
2023-08-12T01:34:30.098Z,24.86
2023-08-12T01:35:01.580Z,24.85
2023-08-12T01:35:33.080Z,24.85
2023-08-12T01:36:04.618Z,24.85
2023-08-12T01:36:36.052Z,24.83
2023-08-12T01:37:07.536Z,24.83
2023-08-12T01:37:39.011Z,24.82
2023-08-12T01:38:10.452Z,24.84
2023-08-12T01:38:42.007Z,24.83
2023-08-12T01:39:13.495Z,24.82
2023-08-12T01:39:44.979Z,24.81
2023-08-12T01:40:16.470Z,24.81
2023-08-12T01:40:47.915Z,24.80
2023-08-12T01:41:19.400Z,24.80
2023-08-12T01:41:50.892Z,24.80
2023-08-12T01:42:22.369Z,24.80
2023-08-12T01:42:53.858Z,24.80
2023-08-12T01:43:25.349Z,24.79
2023-08-12T01:43:56.918Z,24.80
2023-08-12T01:44:28.354Z,24.80
2023-08-12T01:44:59.790Z,24.79
2023-08-12T01:45:31.232Z,24.78
2023-08-12T01:46:02.680Z,24.79
2023-08-12T01:46:34.229Z,24.78
2023-08-12T01:47:05.741Z,24.78
2023-08-12T01:47:37.279Z,24.78
2023-08-12T01:48:08.933Z,24.77
2023-08-12T01:48:40.421Z,24.77
2023-08-12T01:49:11.958Z,24.77
2023-08-12T01:49:43.440Z,24.76
2023-08-12T01:50:14.929Z,24.76
2023-08-12T01:50:46.389Z,24.76
2023-08-12T01:51:17.867Z,24.75
2023-08-12T01:51:49.329Z,24.75
2023-08-12T01:52:20.831Z,24.75
2023-08-12T01:52:52.277Z,24.75
2023-08-12T01:53:23.823Z,24.73
2023-08-12T01:53:55.309Z,24.75
2023-08-12T01:54:26.881Z,24.74
2023-08-12T01:54:58.326Z,24.73
2023-08-12T01:55:29.887Z,24.73
2023-08-12T01:56:01.370Z,24.73
2023-08-12T01:56:32.815Z,24.72
2023-08-12T01:57:04.251Z,24.72
2023-08-12T01:57:36.192Z,24.71
2023-08-12T01:58:07.654Z,24.72
2023-08-12T01:58:39.199Z,24.72
2023-08-12T01:59:10.684Z,24.72
2023-08-12T01:59:42.128Z,24.72
2023-08-12T02:00:13.592Z,24.71
2023-08-12T02:00:45.075Z,24.72
2023-08-12T02:01:16.569Z,24.70
2023-08-12T02:01:48.076Z,24.70
2023-08-12T02:02:19.539Z,24.71
2023-08-12T02:02:51.076Z,24.70
2023-08-12T02:03:22.758Z,24.69
2023-08-12T02:03:54.430Z,24.68
2023-08-12T02:04:25.937Z,24.69
2023-08-12T02:04:57.426Z,24.68
2023-08-12T02:05:28.873Z,24.69
2023-08-12T02:06:00.358Z,24.68
2023-08-12T02:06:31.803Z,24.68
2023-08-12T02:07:03.251Z,24.67
2023-08-12T02:07:34.727Z,24.67
2023-08-12T02:08:06.222Z,24.67
2023-08-12T02:08:37.829Z,24.67
2023-08-12T02:09:09.384Z,24.67
2023-08-12T02:09:40.905Z,24.67
2023-08-12T02:10:12.362Z,24.66
2023-08-12T02:10:43.821Z,24.66
2023-08-12T02:11:15.303Z,24.66
2023-08-12T02:11:46.873Z,24.67
2023-08-12T02:12:18.333Z,24.65
2023-08-12T02:12:49.810Z,24.66
2023-08-12T02:13:21.286Z,24.65
2023-08-12T02:13:52.783Z,24.64
2023-08-12T02:14:24.277Z,24.65
2023-08-12T02:14:55.759Z,24.64
2023-08-12T02:15:27.245Z,24.64
2023-08-12T02:15:58.741Z,24.63
2023-08-12T02:16:30.237Z,24.63
2023-08-12T02:17:01.754Z,24.63
2023-08-12T02:17:33.240Z,24.64
2023-08-12T02:18:04.758Z,24.63
2023-08-12T02:18:36.270Z,24.62
2023-08-12T02:19:07.828Z,24.62
2023-08-12T02:19:39.327Z,24.62
2023-08-12T02:20:10.867Z,24.62
2023-08-12T02:20:42.515Z,24.61
2023-08-12T02:21:14.029Z,24.61
2023-08-12T02:21:45.496Z,24.61
2023-08-12T02:22:16.974Z,24.61
2023-08-12T02:22:48.462Z,24.60
2023-08-12T02:23:19.913Z,24.60
2023-08-12T02:23:51.367Z,24.60
2023-08-12T02:24:23.015Z,24.60
2023-08-12T02:24:54.523Z,24.59
2023-08-12T02:25:25.964Z,24.58
2023-08-12T02:25:57.446Z,24.58
2023-08-12T02:26:28.913Z,24.58
2023-08-12T02:27:00.356Z,24.57
2023-08-12T02:27:31.789Z,24.57
2023-08-12T02:28:03.246Z,24.58
2023-08-12T02:28:34.680Z,24.58
2023-08-12T02:29:06.157Z,24.57
2023-08-12T02:29:37.605Z,24.57
2023-08-12T02:30:09.097Z,24.56
2023-08-12T02:30:40.539Z,24.57
2023-08-12T02:31:12.055Z,24.55
2023-08-12T02:31:43.606Z,24.55
2023-08-12T02:32:15.106Z,24.56
2023-08-12T02:32:46.563Z,24.54
2023-08-12T02:33:18.008Z,24.54
2023-08-12T02:33:49.455Z,24.53
2023-08-12T02:34:20.894Z,24.54
2023-08-12T02:34:52.362Z,24.52
2023-08-12T02:35:23.973Z,24.52
2023-08-12T02:35:55.423Z,24.53
2023-08-12T02:36:26.870Z,24.52
2023-08-12T02:36:58.319Z,24.52
2023-08-12T02:37:29.791Z,24.52
2023-08-12T02:38:01.274Z,24.52
2023-08-12T02:38:32.761Z,24.52
2023-08-12T02:39:04.211Z,24.51
2023-08-12T02:39:35.691Z,24.50
2023-08-12T02:40:07.172Z,24.50
2023-08-12T02:40:38.679Z,24.50
2023-08-12T02:41:10.119Z,24.50
2023-08-12T02:41:41.554Z,24.48
2023-08-12T02:42:12.993Z,24.50
2023-08-12T02:42:44.499Z,24.49
2023-08-12T02:43:15.994Z,24.49
2023-08-12T02:43:47.433Z,24.49
2023-08-12T02:44:18.863Z,24.49
2023-08-12T02:44:50.297Z,24.50
2023-08-12T02:45:21.739Z,24.49
2023-08-12T02:45:53.286Z,24.48
2023-08-12T02:46:24.778Z,24.48
2023-08-12T02:46:56.276Z,24.47
2023-08-12T02:47:27.785Z,24.47
2023-08-12T02:47:59.276Z,24.47
2023-08-12T02:48:30.745Z,24.46
2023-08-12T02:49:02.181Z,24.46
2023-08-12T02:49:33.621Z,24.46
2023-08-12T02:50:05.117Z,24.46
2023-08-12T02:50:36.593Z,24.45
2023-08-12T02:51:08.173Z,24.45
2023-08-12T02:51:39.616Z,24.43
2023-08-12T02:52:11.221Z,24.43
2023-08-12T02:52:42.709Z,24.43
2023-08-12T02:53:14.174Z,24.43
2023-08-12T02:53:45.659Z,24.42
2023-08-12T02:54:17.114Z,24.43
2023-08-12T02:54:48.546Z,24.42
2023-08-12T02:55:20.088Z,24.39
2023-08-12T02:55:51.605Z,24.40
2023-08-12T02:56:23.123Z,24.42
2023-08-12T02:56:54.593Z,24.41
2023-08-12T02:57:26.074Z,24.41
2023-08-12T02:57:57.571Z,24.41
2023-08-12T02:58:29.061Z,24.40
2023-08-12T02:59:00.567Z,24.40
2023-08-12T02:59:32.017Z,24.39
2023-08-12T03:00:03.455Z,24.39
2023-08-12T03:00:34.984Z,24.38
2023-08-12T03:01:06.474Z,24.38
2023-08-12T03:01:38.013Z,24.38
2023-08-12T03:02:09.573Z,24.38
2023-08-12T03:02:41.135Z,24.38
2023-08-12T03:03:12.711Z,24.37
2023-08-12T03:03:44.269Z,24.37
2023-08-12T03:04:15.719Z,24.37
2023-08-12T03:04:47.175Z,24.37
2023-08-12T03:05:18.617Z,24.36
2023-08-12T03:05:50.242Z,24.37
2023-08-12T03:06:21.771Z,24.37
2023-08-12T03:06:53.344Z,24.37
2023-08-12T03:07:24.877Z,24.37
2023-08-12T03:07:56.374Z,24.36
2023-08-12T03:08:27.817Z,24.36
2023-08-12T03:08:59.291Z,24.35
2023-08-12T03:09:30.790Z,24.35
2023-08-12T03:10:02.263Z,24.34
2023-08-12T03:10:33.731Z,24.35
2023-08-12T03:11:05.210Z,24.34
2023-08-12T03:11:36.651Z,24.35
2023-08-12T03:12:08.192Z,24.34
2023-08-12T03:12:39.683Z,24.34
2023-08-12T03:13:11.255Z,24.34
2023-08-12T03:13:42.742Z,24.33
2023-08-12T03:14:14.220Z,24.32
2023-08-12T03:14:45.699Z,24.32
2023-08-12T03:15:17.188Z,24.33
2023-08-12T03:15:48.671Z,24.32
2023-08-12T03:16:20.249Z,24.32
2023-08-12T03:16:51.753Z,24.31
2023-08-12T03:17:23.204Z,24.31
2023-08-12T03:17:54.894Z,24.31
2023-08-12T03:18:26.370Z,24.31
2023-08-12T03:18:57.944Z,24.30
2023-08-12T03:19:29.394Z,24.30
2023-08-12T03:20:00.864Z,24.30
2023-08-12T03:20:32.317Z,24.30
2023-08-12T03:21:03.783Z,24.28
2023-08-12T03:21:35.364Z,24.29
2023-08-12T03:22:06.860Z,24.29
2023-08-12T03:22:38.371Z,24.29
2023-08-12T03:23:09.823Z,24.28
2023-08-12T03:23:41.268Z,24.28
2023-08-12T03:24:12.786Z,24.28
2023-08-12T03:24:44.220Z,24.28
2023-08-12T03:25:15.657Z,24.27
2023-08-12T03:25:47.142Z,24.27
2023-08-12T03:26:18.587Z,24.27
2023-08-12T03:26:50.162Z,24.27
2023-08-12T03:27:21.609Z,24.25
2023-08-12T03:27:53.111Z,24.24
2023-08-12T03:28:24.599Z,24.25
2023-08-12T03:28:56.048Z,24.25
2023-08-12T03:29:27.499Z,24.24
2023-08-12T03:29:58.999Z,24.24
2023-08-12T03:30:30.443Z,24.24
2023-08-12T03:31:01.917Z,24.24
2023-08-12T03:31:33.476Z,24.24
2023-08-12T03:32:04.956Z,24.25
2023-08-12T03:32:36.679Z,24.22
2023-08-12T03:33:08.245Z,24.23
2023-08-12T03:33:39.702Z,24.23
2023-08-12T03:34:11.147Z,24.23
2023-08-12T03:34:42.589Z,24.22
2023-08-12T03:35:14.028Z,24.22
2023-08-12T03:35:45.470Z,24.21
2023-08-12T03:36:16.994Z,24.21
2023-08-12T03:36:48.458Z,24.20
2023-08-12T03:37:19.932Z,24.21
2023-08-12T03:37:51.423Z,24.20
2023-08-12T03:38:22.926Z,24.21
2023-08-12T03:38:54.379Z,24.21
2023-08-12T03:39:25.863Z,24.20
2023-08-12T03:39:57.444Z,24.20
2023-08-12T03:40:28.912Z,24.21
2023-08-12T03:41:00.346Z,24.20
2023-08-12T03:41:31.856Z,24.20
2023-08-12T03:42:03.366Z,24.20
2023-08-12T03:42:34.865Z,24.19
2023-08-12T03:43:06.348Z,24.19
2023-08-12T03:43:37.815Z,24.18
2023-08-12T03:44:09.285Z,24.19
2023-08-12T03:44:40.792Z,24.19
2023-08-12T03:45:12.277Z,24.18
2023-08-12T03:45:43.749Z,24.18
2023-08-12T03:46:15.231Z,24.17
2023-08-12T03:46:46.791Z,24.17
2023-08-12T03:47:18.386Z,24.17
2023-08-12T03:47:49.938Z,24.17
2023-08-12T03:48:21.490Z,24.17
2023-08-12T03:48:52.978Z,24.16
2023-08-12T03:49:24.464Z,24.16
2023-08-12T03:49:55.952Z,24.16
2023-08-12T03:50:27.453Z,24.16
2023-08-12T03:50:58.922Z,24.16
2023-08-12T03:51:30.417Z,24.15
2023-08-12T03:52:01.971Z,24.15
2023-08-12T03:52:33.436Z,24.15
2023-08-12T03:53:04.888Z,24.14
2023-08-12T03:53:36.358Z,24.14
2023-08-12T03:54:07.849Z,24.13
2023-08-12T03:54:39.306Z,24.14
2023-08-12T03:55:10.783Z,24.13
2023-08-12T03:55:42.271Z,24.14
2023-08-12T03:56:13.728Z,24.13
2023-08-12T03:56:45.218Z,24.13
2023-08-12T03:57:16.732Z,24.11
2023-08-12T03:57:48.213Z,24.12
2023-08-12T03:58:19.695Z,24.11
2023-08-12T03:58:51.178Z,24.11
2023-08-12T03:59:22.657Z,24.10
2023-08-12T03:59:54.100Z,24.11
2023-08-12T04:00:25.579Z,24.11
2023-08-12T04:00:57.057Z,24.10
2023-08-12T04:01:28.543Z,24.09
2023-08-12T04:02:00.048Z,24.10
2023-08-12T04:02:31.558Z,24.10
2023-08-12T04:03:03.205Z,24.09
2023-08-12T04:03:34.772Z,24.10
2023-08-12T04:04:06.230Z,24.10
2023-08-12T04:04:37.718Z,24.09
2023-08-12T04:05:09.175Z,24.09
2023-08-12T04:05:40.659Z,24.09
2023-08-12T04:06:12.145Z,24.09
2023-08-12T04:06:43.636Z,24.08
2023-08-12T04:07:15.483Z,24.08
2023-08-12T04:07:47.208Z,24.08
2023-08-12T04:08:18.720Z,24.07
2023-08-12T04:08:50.205Z,24.07
2023-08-12T04:09:21.710Z,24.07
2023-08-12T04:09:53.190Z,24.06
2023-08-12T04:10:24.692Z,24.06
2023-08-12T04:10:56.173Z,24.06
2023-08-12T04:11:27.622Z,24.05
2023-08-12T04:11:59.063Z,24.06
2023-08-12T04:12:30.649Z,24.05
2023-08-12T04:13:02.148Z,24.06
2023-08-12T04:13:33.705Z,24.04
2023-08-12T04:14:05.184Z,24.05
2023-08-12T04:14:36.640Z,24.05
2023-08-12T04:15:08.132Z,24.05
2023-08-12T04:15:39.640Z,24.05
2023-08-12T04:16:11.123Z,24.04
2023-08-12T04:16:42.690Z,24.04
2023-08-12T04:17:14.492Z,24.04
2023-08-12T04:17:46.326Z,24.05
2023-08-12T04:18:17.818Z,24.03
2023-08-12T04:18:49.373Z,24.03
2023-08-12T04:19:20.825Z,24.02
2023-08-12T04:19:52.274Z,24.01
2023-08-12T04:20:23.714Z,24.01
2023-08-12T04:20:55.171Z,24.01
2023-08-12T04:21:26.768Z,24.01
2023-08-12T04:21:58.244Z,24.01
2023-08-12T04:22:29.756Z,24.01
2023-08-12T04:23:01.249Z,24.00
2023-08-12T04:23:32.851Z,24.01
2023-08-12T04:24:04.289Z,24.00
2023-08-12T04:24:35.781Z,24.00
2023-08-12T04:25:07.277Z,23.99
2023-08-12T04:25:38.762Z,24.00
2023-08-12T04:26:10.217Z,23.99
2023-08-12T04:26:41.691Z,23.99
2023-08-12T04:27:13.383Z,23.98
2023-08-12T04:27:45.091Z,23.99
2023-08-12T04:28:16.530Z,23.97
2023-08-12T04:28:48.091Z,23.99
2023-08-12T04:29:19.570Z,23.99
2023-08-12T04:29:51.013Z,23.98
2023-08-12T04:30:22.534Z,23.97
2023-08-12T04:30:54.171Z,23.96
2023-08-12T04:31:25.745Z,23.97
2023-08-12T04:31:57.303Z,23.96
2023-08-12T04:32:28.815Z,23.96
2023-08-12T04:33:00.363Z,23.97
2023-08-12T04:33:31.852Z,23.96
2023-08-12T04:34:03.419Z,23.96
2023-08-12T04:34:34.899Z,23.96
2023-08-12T04:35:06.374Z,23.96
2023-08-12T04:35:37.871Z,23.96
2023-08-12T04:36:09.303Z,23.96
2023-08-12T04:36:42.632Z,23.95
2023-08-12T04:37:15.746Z,23.95
2023-08-12T04:37:47.229Z,23.95
2023-08-12T04:38:18.690Z,23.94
2023-08-12T04:38:50.159Z,23.94
2023-08-12T04:39:21.618Z,23.95
2023-08-12T04:39:53.103Z,23.94
2023-08-12T04:40:24.556Z,23.95
2023-08-12T04:40:56.077Z,23.95
2023-08-12T04:41:27.573Z,23.94
2023-08-12T04:41:59.024Z,23.93
2023-08-12T04:42:30.482Z,23.93
2023-08-12T04:43:01.920Z,23.93
2023-08-12T04:43:33.451Z,23.92
2023-08-12T04:44:04.924Z,23.93
2023-08-12T04:44:36.471Z,23.92
2023-08-12T04:45:07.947Z,23.92
2023-08-12T04:45:39.508Z,23.92
2023-08-12T04:46:11.105Z,23.92
2023-08-12T04:46:42.599Z,23.92
2023-08-12T04:47:14.211Z,23.92
2023-08-12T04:47:45.943Z,23.92
2023-08-12T04:48:17.457Z,23.91
2023-08-12T04:48:48.956Z,23.92
2023-08-12T04:49:20.439Z,23.92
2023-08-12T04:49:52.015Z,23.91
2023-08-12T04:50:23.494Z,23.92
2023-08-12T04:50:54.940Z,23.91
2023-08-12T04:51:26.427Z,23.92
2023-08-12T04:51:57.944Z,23.92
2023-08-12T04:52:29.439Z,23.91
2023-08-12T04:53:00.946Z,23.91
2023-08-12T04:53:32.392Z,23.91
2023-08-12T04:54:03.844Z,23.90
2023-08-12T04:54:35.347Z,23.91
2023-08-12T04:55:06.888Z,23.91
2023-08-12T04:55:38.375Z,23.90
2023-08-12T04:56:09.862Z,23.91
2023-08-12T04:56:41.352Z,23.89
2023-08-12T04:57:12.977Z,23.90
2023-08-12T04:57:44.596Z,23.89
2023-08-12T04:58:16.058Z,23.90
2023-08-12T04:58:47.550Z,23.90
2023-08-12T04:59:18.994Z,23.90
2023-08-12T04:59:50.470Z,23.88
2023-08-12T05:00:22.050Z,23.89
2023-08-12T05:00:53.508Z,23.88
2023-08-12T05:01:25.017Z,23.89
2023-08-12T05:02:04.790Z,23.89
2023-08-12T05:02:36.932Z,23.88
2023-08-12T05:03:08.487Z,23.88
2023-08-12T05:03:39.971Z,23.88
2023-08-12T05:04:11.426Z,23.88
2023-08-12T05:04:42.932Z,23.89
2023-08-12T05:05:14.530Z,23.87
2023-08-12T05:05:46.095Z,23.86
2023-08-12T05:06:17.544Z,23.87
2023-08-12T05:06:48.982Z,23.87
2023-08-12T05:07:20.460Z,23.87
2023-08-12T05:07:51.914Z,23.86
2023-08-12T05:08:23.364Z,23.87
2023-08-12T05:08:54.858Z,23.87
2023-08-12T05:09:26.359Z,23.86
2023-08-12T05:09:57.869Z,23.86
2023-08-12T05:10:29.469Z,23.86
2023-08-12T05:11:00.962Z,23.87
2023-08-12T05:11:32.417Z,23.85
2023-08-12T05:12:03.903Z,23.86
2023-08-12T05:12:35.467Z,23.86
2023-08-12T05:13:06.914Z,23.86
2023-08-12T05:13:38.347Z,23.87
2023-08-12T05:14:09.819Z,23.86
2023-08-12T05:14:41.309Z,23.85
2023-08-12T05:15:12.751Z,23.85
2023-08-12T05:15:44.396Z,23.85
2023-08-12T05:16:15.878Z,23.85
2023-08-12T05:16:47.385Z,23.84
2023-08-12T05:17:18.845Z,23.85
2023-08-12T05:17:50.431Z,23.83
2023-08-12T05:18:21.915Z,23.84
2023-08-12T05:18:53.390Z,23.83
2023-08-12T05:19:24.829Z,23.83
2023-08-12T05:19:56.304Z,23.83
2023-08-12T05:20:27.751Z,23.84
2023-08-12T05:20:59.203Z,23.83
2023-08-12T05:21:30.683Z,23.83
2023-08-12T05:22:02.126Z,23.84
2023-08-12T05:22:33.562Z,23.84
2023-08-12T05:23:05.111Z,23.84
2023-08-12T05:23:36.563Z,23.85
2023-08-12T05:24:08.043Z,23.85
2023-08-12T05:24:39.531Z,23.83
2023-08-12T05:25:10.995Z,23.83
2023-08-12T05:25:42.436Z,23.82
2023-08-12T05:26:13.927Z,23.83
2023-08-12T05:26:45.424Z,23.83
2023-08-12T05:27:16.894Z,23.84
2023-08-12T05:27:48.339Z,23.84
2023-08-12T05:28:19.867Z,23.84
2023-08-12T05:28:51.361Z,23.83
2023-08-12T05:29:22.816Z,23.83
2023-08-12T05:29:54.257Z,23.85
2023-08-12T05:30:25.739Z,23.83
2023-08-12T05:30:57.230Z,23.83
2023-08-12T05:31:28.806Z,23.85
2023-08-12T05:32:00.289Z,23.86
2023-08-12T05:32:31.805Z,23.87
2023-08-12T05:33:03.422Z,23.86
2023-08-12T05:33:34.991Z,23.87
2023-08-12T05:34:06.512Z,23.87
2023-08-12T05:34:38.005Z,23.88
2023-08-12T05:35:09.498Z,23.88
2023-08-12T05:35:40.993Z,23.88
2023-08-12T05:36:12.448Z,23.90
2023-08-12T05:36:43.949Z,23.90
2023-08-12T05:37:15.437Z,23.91
2023-08-12T05:37:46.881Z,23.91
2023-08-12T05:38:18.333Z,23.91
2023-08-12T05:38:49.795Z,23.92
2023-08-12T05:39:21.243Z,23.93
2023-08-12T05:39:52.719Z,23.93
2023-08-12T05:40:24.172Z,23.95
2023-08-12T05:40:55.669Z,23.95
2023-08-12T05:41:27.159Z,23.97
2023-08-12T05:41:58.753Z,23.96
2023-08-12T05:42:30.195Z,23.99
2023-08-12T05:43:01.726Z,23.98
2023-08-12T05:43:33.188Z,23.99
2023-08-12T05:44:04.667Z,24.01
2023-08-12T05:44:36.124Z,24.02
2023-08-12T05:45:08.591Z,24.02
2023-08-12T05:45:40.426Z,24.04
2023-08-12T05:46:11.912Z,24.05
2023-08-12T05:46:43.408Z,24.06
2023-08-12T05:47:14.915Z,24.06
2023-08-12T05:47:46.382Z,24.09
2023-08-12T05:48:17.842Z,24.09
2023-08-12T05:48:49.316Z,24.11
2023-08-12T05:49:20.804Z,24.12
2023-08-12T05:49:52.253Z,24.13
2023-08-12T05:50:23.703Z,24.14
2023-08-12T05:50:55.186Z,24.16
2023-08-12T05:51:28.516Z,24.16
2023-08-12T05:52:01.749Z,24.17
2023-08-12T05:52:33.329Z,24.19
2023-08-12T05:53:04.787Z,24.19
2023-08-12T05:53:36.281Z,24.21
2023-08-12T05:54:07.848Z,24.22
2023-08-12T05:54:39.331Z,24.24
2023-08-12T05:55:10.774Z,24.24
2023-08-12T05:55:42.207Z,24.25
2023-08-12T05:56:13.649Z,24.27
2023-08-12T05:56:45.270Z,24.28
2023-08-12T05:57:16.835Z,24.29
2023-08-12T05:57:48.333Z,24.30
2023-08-12T05:58:19.861Z,24.31
2023-08-12T05:58:51.361Z,24.32
2023-08-12T05:59:22.820Z,24.33
2023-08-12T05:59:54.303Z,24.34
2023-08-12T06:00:25.858Z,24.36
2023-08-12T06:00:57.329Z,24.37
2023-08-12T06:01:28.842Z,24.37
2023-08-12T06:02:00.343Z,24.38
2023-08-12T06:02:31.843Z,24.41
2023-08-12T06:03:03.342Z,24.43
2023-08-12T06:03:34.995Z,24.42
2023-08-12T06:04:06.599Z,24.44
2023-08-12T06:04:38.095Z,24.45
2023-08-12T06:05:09.535Z,24.46
2023-08-12T06:05:40.990Z,24.47
2023-08-12T06:06:12.478Z,24.48
2023-08-12T06:06:43.953Z,24.49
2023-08-12T06:07:15.410Z,24.50
2023-08-12T06:07:46.922Z,24.51
2023-08-12T06:08:18.389Z,24.53
2023-08-12T06:08:49.882Z,24.53
2023-08-12T06:09:21.355Z,24.55
2023-08-12T06:09:52.846Z,24.57
2023-08-12T06:10:24.296Z,24.58
2023-08-12T06:10:55.777Z,24.58
2023-08-12T06:11:27.281Z,24.59
2023-08-12T06:11:58.761Z,24.61
2023-08-12T06:12:30.240Z,24.61
2023-08-12T06:13:01.747Z,24.63
2023-08-12T06:13:33.184Z,24.63
2023-08-12T06:14:04.686Z,24.65
2023-08-12T06:14:36.120Z,24.65
2023-08-12T06:15:07.596Z,24.66
2023-08-12T06:15:39.122Z,24.68
2023-08-12T06:16:10.804Z,24.68
2023-08-12T06:16:42.346Z,24.70
2023-08-12T06:17:13.795Z,24.71
2023-08-12T06:17:45.283Z,24.72
2023-08-12T06:18:16.892Z,24.73
2023-08-12T06:18:48.385Z,24.74
2023-08-12T06:19:19.868Z,24.75
2023-08-12T06:19:51.355Z,24.76
2023-08-12T06:20:22.855Z,24.76
2023-08-12T06:20:54.328Z,24.77
2023-08-12T06:21:25.786Z,24.79
2023-08-12T06:21:57.282Z,24.79
2023-08-12T06:22:28.728Z,24.81
2023-08-12T06:23:00.189Z,24.81
2023-08-12T06:23:31.742Z,24.81
2023-08-12T06:24:03.226Z,24.83
2023-08-12T06:24:34.746Z,24.86
2023-08-12T06:25:06.283Z,24.85
2023-08-12T06:25:37.858Z,24.87
2023-08-12T06:26:09.300Z,24.88
2023-08-12T06:26:40.815Z,24.88
2023-08-12T06:27:12.285Z,24.89
2023-08-12T06:27:43.771Z,24.89
2023-08-12T06:28:15.243Z,24.91
2023-08-12T06:28:46.780Z,24.92
2023-08-12T06:29:18.229Z,24.92
2023-08-12T06:29:49.729Z,24.92
2023-08-12T06:30:21.188Z,24.94
2023-08-12T06:30:52.751Z,24.94
2023-08-12T06:31:24.216Z,24.95
2023-08-12T06:31:55.738Z,24.94
2023-08-12T06:32:27.257Z,24.96
2023-08-12T06:32:58.757Z,24.95
2023-08-12T06:33:30.258Z,24.97
2023-08-12T06:34:01.826Z,24.97
2023-08-12T06:34:33.277Z,24.98
2023-08-12T06:35:04.733Z,24.98
2023-08-12T06:35:36.214Z,24.99
2023-08-12T06:36:07.672Z,24.99
2023-08-12T06:36:39.162Z,25.01
2023-08-12T06:37:10.607Z,25.00
2023-08-12T06:37:42.091Z,25.01
2023-08-12T06:38:13.536Z,25.01
2023-08-12T06:38:45.016Z,25.03
2023-08-12T06:39:16.543Z,25.03
2023-08-12T06:39:48.000Z,25.03
2023-08-12T06:40:19.438Z,25.04
2023-08-12T06:40:50.875Z,25.05
2023-08-12T06:41:22.355Z,25.06
2023-08-12T06:41:53.842Z,25.07
2023-08-12T06:42:25.296Z,25.07
2023-08-12T06:42:56.777Z,25.08
2023-08-12T06:43:30.300Z,25.09
2023-08-12T06:44:01.968Z,25.10
2023-08-12T06:44:33.420Z,25.11
2023-08-12T06:45:04.955Z,25.11
2023-08-12T06:45:36.772Z,25.11
2023-08-12T06:46:08.372Z,25.11